SWA1642 KLAX-KSMF
Flight info
| Callsign | SWA1642 |
|---|---|
| Flight time | 1h 4m |
| Altitude | 34000 |
| Route | SUMMR2 RIZIN FLW NURAY SUUTR4 |
| Aircraft | B738/M-SDE2E3FGHIRWXY/LB1 |
Departure
| Time | 2026-04-21 06:13 |
|---|---|
| Airport | Los Angeles International Airport (KLAX) |
Arrival
| Time | 2026-04-21 07:17 |
|---|---|
| Airport | Sacramento International Airport (KSMF) |
| Time | Latitude | Longitude | Altitude | Speed | Heading |
|---|---|---|---|---|---|
| 2026-04-21 05:54 | 33.94692 | -118.40059 | 101 ft | 0 kts | 264° |
| 2026-04-21 06:07 | 33.94693 | -118.40052 | 92 ft | 3 kts | 264° |
| 2026-04-21 06:07 | 33.94695 | -118.40029 | 92 ft | 3 kts | 279° |
| 2026-04-21 06:07 | 33.94690 | -118.40014 | 92 ft | 0 kts | 329° |
| 2026-04-21 06:07 | 33.94689 | -118.40013 | 92 ft | 0 kts | 334° |
| 2026-04-21 06:10 | 33.94690 | -118.40014 | 92 ft | 1 kts | 335° |
| 2026-04-21 06:11 | 33.94721 | -118.40014 | 93 ft | 11 kts | 1° |
| 2026-04-21 06:11 | 33.94734 | -118.40014 | 92 ft | 13 kts | 1° |
| 2026-04-21 06:11 | 33.94837 | -118.40042 | 92 ft | 19 kts | 319° |
| 2026-04-21 06:11 | 33.94924 | -118.40012 | 92 ft | 18 kts | 85° |
| 2026-04-21 06:12 | 33.95001 | -118.39918 | 93 ft | 18 kts | 359° |
| 2026-04-21 06:12 | 33.95034 | -118.40024 | 95 ft | 17 kts | 261° |
| 2026-04-21 06:12 | 33.95006 | -118.40293 | 97 ft | 69 kts | 263° |
| 2026-04-21 06:12 | 33.94969 | -118.40654 | 96 ft | 105 kts | 263° |
| 2026-04-21 06:13 | 33.94851 | -118.41782 | 219 ft | 155 kts | 263° |
| 2026-04-21 06:13 | 33.94717 | -118.43114 | 839 ft | 171 kts | 264° |
| 2026-04-21 06:13 | 33.94572 | -118.44605 | 1678 ft | 180 kts | 262° |
| 2026-04-21 06:13 | 33.94420 | -118.46110 | 2559 ft | 183 kts | 263° |
| 2026-04-21 06:14 | 33.94315 | -118.47634 | 3341 ft | 188 kts | 267° |
| 2026-04-21 06:14 | 33.94266 | -118.49232 | 4129 ft | 194 kts | 267° |
| 2026-04-21 06:14 | 33.94217 | -118.50971 | 4479 ft | 223 kts | 265° |
| 2026-04-21 06:14 | 33.94081 | -118.52952 | 4769 ft | 251 kts | 263° |
| 2026-04-21 06:15 | 33.93904 | -118.55117 | 5348 ft | 264 kts | 263° |
| 2026-04-21 06:15 | 33.93724 | -118.57343 | 6215 ft | 268 kts | 262° |
| 2026-04-21 06:15 | 33.93546 | -118.59579 | 7090 ft | 269 kts | 261° |
| 2026-04-21 06:15 | 33.93367 | -118.61835 | 7915 ft | 272 kts | 261° |
| 2026-04-21 06:16 | 33.93187 | -118.64116 | 8735 ft | 276 kts | 261° |
| 2026-04-21 06:16 | 33.93007 | -118.66424 | 9579 ft | 278 kts | 260° |
| 2026-04-21 06:16 | 33.92826 | -118.68754 | 10383 ft | 282 kts | 260° |
| 2026-04-21 06:16 | 33.92632 | -118.71203 | 10627 ft | 306 kts | 260° |
| 2026-04-21 06:17 | 33.92423 | -118.73851 | 10826 ft | 329 kts | 261° |
| 2026-04-21 06:17 | 33.92205 | -118.76661 | 11267 ft | 342 kts | 261° |
| 2026-04-21 06:17 | 33.91984 | -118.79529 | 11852 ft | 345 kts | 261° |
| 2026-04-21 06:17 | 33.91760 | -118.82408 | 11956 ft | 346 kts | 261° |
| 2026-04-21 06:18 | 33.91646 | -118.85322 | 12125 ft | 352 kts | 267° |
| 2026-04-21 06:18 | 33.91755 | -118.88293 | 12817 ft | 356 kts | 269° |
| 2026-04-21 06:18 | 33.91898 | -118.91269 | 13682 ft | 356 kts | 268° |
| 2026-04-21 06:18 | 33.92015 | -118.94215 | 14359 ft | 358 kts | 268° |
| 2026-04-21 06:19 | 33.92112 | -118.97235 | 14974 ft | 363 kts | 267° |
| 2026-04-21 06:19 | 33.92237 | -119.00287 | 15608 ft | 368 kts | 272° |
| 2026-04-21 06:19 | 33.93004 | -119.03293 | 16190 ft | 385 kts | 293° |
| 2026-04-21 06:19 | 33.94407 | -119.06074 | 16830 ft | 391 kts | 297° |
| 2026-04-21 06:20 | 33.95895 | -119.08847 | 17421 ft | 396 kts | 297° |
| 2026-04-21 06:20 | 33.97387 | -119.11654 | 17987 ft | 400 kts | 297° |
| 2026-04-21 06:20 | 33.98871 | -119.14502 | 18534 ft | 403 kts | 297° |
| 2026-04-21 06:20 | 34.00365 | -119.17378 | 19066 ft | 406 kts | 299° |
| 2026-04-21 06:21 | 34.02243 | -119.19905 | 19592 ft | 419 kts | 318° |
| 2026-04-21 06:21 | 34.04636 | -119.21938 | 20164 ft | 422 kts | 321° |
| 2026-04-21 06:21 | 34.07062 | -119.23954 | 20690 ft | 425 kts | 321° |
| 2026-04-21 06:21 | 34.09499 | -119.25994 | 21252 ft | 426 kts | 320° |
| 2026-04-21 06:22 | 34.11921 | -119.28041 | 21879 ft | 425 kts | 320° |
| 2026-04-21 06:22 | 34.14343 | -119.30108 | 22432 ft | 426 kts | 320° |
| 2026-04-21 06:22 | 34.16767 | -119.32190 | 22918 ft | 429 kts | 320° |
| 2026-04-21 06:22 | 34.19201 | -119.34288 | 23396 ft | 431 kts | 320° |
| 2026-04-21 06:23 | 34.21653 | -119.36406 | 23855 ft | 433 kts | 320° |
| 2026-04-21 06:23 | 34.24112 | -119.38531 | 24223 ft | 436 kts | 320° |
| 2026-04-21 06:23 | 34.26589 | -119.40673 | 24592 ft | 439 kts | 320° |
| 2026-04-21 06:23 | 34.29083 | -119.42829 | 24986 ft | 441 kts | 320° |
| 2026-04-21 06:24 | 34.31585 | -119.44994 | 25374 ft | 443 kts | 320° |
| 2026-04-21 06:24 | 34.34097 | -119.47169 | 25751 ft | 445 kts | 320° |
| 2026-04-21 06:24 | 34.36621 | -119.49356 | 26112 ft | 448 kts | 320° |
| 2026-04-21 06:24 | 34.39128 | -119.51530 | 26469 ft | 450 kts | 320° |
| 2026-04-21 06:25 | 34.41734 | -119.53671 | 26807 ft | 457 kts | 326° |
| 2026-04-21 06:25 | 34.44657 | -119.55309 | 27136 ft | 465 kts | 333° |
| 2026-04-21 06:25 | 34.47684 | -119.56736 | 27487 ft | 468 kts | 334° |
| 2026-04-21 06:25 | 34.50752 | -119.58122 | 27815 ft | 470 kts | 335° |
| 2026-04-21 06:26 | 34.53828 | -119.59518 | 28149 ft | 472 kts | 334° |
| 2026-04-21 06:26 | 34.56866 | -119.60929 | 28440 ft | 475 kts | 334° |
| 2026-04-21 06:26 | 34.59956 | -119.62396 | 28752 ft | 477 kts | 333° |
| 2026-04-21 06:26 | 34.63052 | -119.63889 | 29071 ft | 478 kts | 333° |
| 2026-04-21 06:27 | 34.66156 | -119.65400 | 29395 ft | 480 kts | 333° |
| 2026-04-21 06:27 | 34.69252 | -119.66912 | 29858 ft | 478 kts | 333° |
| 2026-04-21 06:27 | 34.72337 | -119.68419 | 30313 ft | 476 kts | 333° |
| 2026-04-21 06:27 | 34.75408 | -119.69920 | 30690 ft | 475 kts | 333° |
| 2026-04-21 06:28 | 34.78428 | -119.71397 | 31065 ft | 474 kts | 333° |
| 2026-04-21 06:28 | 34.81490 | -119.72896 | 31384 ft | 475 kts | 333° |
| 2026-04-21 06:28 | 34.84564 | -119.74402 | 31645 ft | 476 kts | 333° |
| 2026-04-21 06:28 | 34.87636 | -119.75907 | 31991 ft | 475 kts | 333° |
| 2026-04-21 06:29 | 34.90702 | -119.77409 | 32370 ft | 474 kts | 333° |
| 2026-04-21 06:29 | 34.93758 | -119.78907 | 32741 ft | 472 kts | 333° |
| 2026-04-21 06:29 | 34.96805 | -119.80403 | 33117 ft | 470 kts | 333° |
| 2026-04-21 06:29 | 34.99840 | -119.81895 | 33483 ft | 469 kts | 333° |
| 2026-04-21 06:30 | 35.02834 | -119.83368 | 33746 ft | 471 kts | 332° |
| 2026-04-21 06:30 | 35.05900 | -119.84843 | 33999 ft | 474 kts | 336° |
| 2026-04-21 06:30 | 35.09122 | -119.85876 | 34004 ft | 485 kts | 346° |
| 2026-04-21 06:31 | 35.15909 | -119.86074 | 34032 ft | 491 kts | 1° |
| 2026-04-21 06:31 | 35.22689 | -119.85252 | 34028 ft | 488 kts | 2° |
| 2026-04-21 06:32 | 35.29410 | -119.84428 | 34013 ft | 489 kts | 2° |
| 2026-04-21 06:32 | 35.36199 | -119.83662 | 34013 ft | 491 kts | 1° |
| 2026-04-21 06:33 | 35.43017 | -119.82926 | 34006 ft | 491 kts | 1° |
| 2026-04-21 06:33 | 35.49841 | -119.82192 | 33974 ft | 492 kts | 2° |
| 2026-04-21 06:34 | 35.56676 | -119.81454 | 33969 ft | 492 kts | 2° |
| 2026-04-21 06:34 | 35.63457 | -119.80719 | 33966 ft | 492 kts | 2° |
| 2026-04-21 06:35 | 35.70277 | -119.79977 | 33964 ft | 492 kts | 2° |
| 2026-04-21 06:35 | 35.77097 | -119.79234 | 33956 ft | 492 kts | 2° |
| 2026-04-21 06:36 | 35.83906 | -119.78491 | 33953 ft | 491 kts | 2° |
| 2026-04-21 06:36 | 35.90716 | -119.77747 | 33954 ft | 491 kts | 2° |
| 2026-04-21 06:37 | 35.97524 | -119.77001 | 33952 ft | 491 kts | 2° |
| 2026-04-21 06:37 | 36.04329 | -119.76255 | 33950 ft | 491 kts | 2° |
| 2026-04-21 06:38 | 36.11131 | -119.75508 | 33971 ft | 491 kts | 2° |
| 2026-04-21 06:38 | 36.17902 | -119.74763 | 33955 ft | 492 kts | 2° |
| 2026-04-21 06:39 | 36.24734 | -119.74010 | 33952 ft | 493 kts | 2° |
| 2026-04-21 06:39 | 36.31579 | -119.73254 | 33949 ft | 494 kts | 2° |
| 2026-04-21 06:40 | 36.38451 | -119.72494 | 33946 ft | 496 kts | 2° |
| 2026-04-21 06:40 | 36.45339 | -119.71730 | 33945 ft | 497 kts | 2° |
| 2026-04-21 06:41 | 36.52241 | -119.70963 | 33944 ft | 498 kts | 2° |
| 2026-04-21 06:41 | 36.59124 | -119.70825 | 33953 ft | 489 kts | 342° |
| 2026-04-21 06:41 | 36.62263 | -119.72137 | 33960 ft | 477 kts | 327° |
| 2026-04-21 06:42 | 36.65087 | -119.74229 | 34000 ft | 471 kts | 321° |
| 2026-04-21 06:42 | 36.70581 | -119.78691 | 33976 ft | 472 kts | 320° |
| 2026-04-21 06:43 | 36.76102 | -119.83160 | 33977 ft | 473 kts | 321° |
| 2026-04-21 06:43 | 36.81668 | -119.87595 | 33970 ft | 475 kts | 321° |
| 2026-04-21 06:44 | 36.87249 | -119.92017 | 33962 ft | 475 kts | 321° |
| 2026-04-21 06:44 | 36.92817 | -119.96437 | 33510 ft | 477 kts | 321° |
| 2026-04-21 06:44 | 36.95603 | -119.98649 | 33113 ft | 471 kts | 321° |
| 2026-04-21 06:45 | 36.98360 | -120.00839 | 32660 ft | 467 kts | 321° |
| 2026-04-21 06:45 | 37.01110 | -120.03028 | 32236 ft | 463 kts | 321° |
| 2026-04-21 06:45 | 37.03819 | -120.05189 | 31817 ft | 459 kts | 321° |
| 2026-04-21 06:45 | 37.06506 | -120.07334 | 31397 ft | 456 kts | 321° |
| 2026-04-21 06:46 | 37.09142 | -120.09441 | 31010 ft | 453 kts | 320° |
| 2026-04-21 06:46 | 37.11800 | -120.11568 | 30609 ft | 451 kts | 320° |
| 2026-04-21 06:46 | 37.14439 | -120.13681 | 30154 ft | 449 kts | 320° |
| 2026-04-21 06:46 | 37.17074 | -120.15793 | 29701 ft | 447 kts | 320° |
| 2026-04-21 06:47 | 37.19656 | -120.17863 | 29246 ft | 444 kts | 320° |
| 2026-04-21 06:47 | 37.22251 | -120.19946 | 28800 ft | 441 kts | 320° |
| 2026-04-21 06:47 | 37.24824 | -120.22011 | 28384 ft | 437 kts | 320° |
| 2026-04-21 06:47 | 37.27380 | -120.24065 | 27985 ft | 434 kts | 319° |
| 2026-04-21 06:48 | 37.29933 | -120.26098 | 27477 ft | 434 kts | 320° |
| 2026-04-21 06:48 | 37.32501 | -120.28102 | 26946 ft | 436 kts | 320° |
| 2026-04-21 06:48 | 37.35087 | -120.30104 | 26417 ft | 436 kts | 321° |
| 2026-04-21 06:48 | 37.37678 | -120.32112 | 25889 ft | 437 kts | 321° |
| 2026-04-21 06:49 | 37.40226 | -120.34093 | 25365 ft | 437 kts | 320° |
| 2026-04-21 06:49 | 37.42814 | -120.36112 | 24828 ft | 438 kts | 320° |
| 2026-04-21 06:49 | 37.45412 | -120.38144 | 24264 ft | 440 kts | 321° |
| 2026-04-21 06:49 | 37.47992 | -120.40226 | 23743 ft | 438 kts | 316° |
| 2026-04-21 06:50 | 37.50406 | -120.42556 | 23129 ft | 435 kts | 313° |
| 2026-04-21 06:50 | 37.52728 | -120.44992 | 22540 ft | 434 kts | 311° |
| 2026-04-21 06:50 | 37.55039 | -120.47422 | 21988 ft | 433 kts | 312° |
| 2026-04-21 06:50 | 37.57379 | -120.49819 | 21449 ft | 432 kts | 313° |
| 2026-04-21 06:51 | 37.59733 | -120.52190 | 20932 ft | 431 kts | 313° |
| 2026-04-21 06:51 | 37.62075 | -120.54529 | 20507 ft | 428 kts | 314° |
| 2026-04-21 06:51 | 37.64371 | -120.56821 | 20084 ft | 424 kts | 313° |
| 2026-04-21 06:51 | 37.66671 | -120.59122 | 19665 ft | 420 kts | 313° |
| 2026-04-21 06:52 | 37.68952 | -120.61410 | 19253 ft | 417 kts | 313° |
| 2026-04-21 06:52 | 37.71221 | -120.63689 | 18848 ft | 414 kts | 313° |
| 2026-04-21 06:52 | 37.73466 | -120.65945 | 18447 ft | 411 kts | 313° |
| 2026-04-21 06:52 | 37.75694 | -120.68188 | 18007 ft | 408 kts | 313° |
| 2026-04-21 06:53 | 37.77916 | -120.70423 | 17541 ft | 405 kts | 313° |
| 2026-04-21 06:53 | 37.80087 | -120.72611 | 17129 ft | 401 kts | 313° |
| 2026-04-21 06:53 | 37.82261 | -120.74802 | 16731 ft | 397 kts | 314° |
| 2026-04-21 06:53 | 37.84413 | -120.76972 | 16343 ft | 393 kts | 314° |
| 2026-04-21 06:54 | 37.86535 | -120.79114 | 16010 ft | 388 kts | 314° |
| 2026-04-21 06:54 | 37.88634 | -120.81242 | 15628 ft | 384 kts | 314° |
| 2026-04-21 06:54 | 37.90685 | -120.83326 | 15271 ft | 381 kts | 314° |
| 2026-04-21 06:54 | 37.92748 | -120.85426 | 14888 ft | 378 kts | 314° |
| 2026-04-21 06:55 | 37.94791 | -120.87507 | 14515 ft | 376 kts | 314° |
| 2026-04-21 06:55 | 37.96831 | -120.89585 | 14140 ft | 374 kts | 314° |
| 2026-04-21 06:55 | 37.98848 | -120.91642 | 13789 ft | 372 kts | 314° |
| 2026-04-21 06:55 | 38.00857 | -120.93692 | 13380 ft | 369 kts | 315° |
| 2026-04-21 06:56 | 38.02854 | -120.95730 | 12976 ft | 367 kts | 315° |
| 2026-04-21 06:56 | 38.04837 | -120.97757 | 12593 ft | 365 kts | 316° |
| 2026-04-21 06:56 | 38.06811 | -120.99773 | 12269 ft | 363 kts | 316° |
| 2026-04-21 06:56 | 38.08664 | -121.01914 | 11905 ft | 357 kts | 307° |
| 2026-04-21 06:57 | 38.10282 | -121.04291 | 11521 ft | 353 kts | 303° |
| 2026-04-21 06:57 | 38.11803 | -121.06666 | 11178 ft | 350 kts | 303° |
| 2026-04-21 06:57 | 38.13338 | -121.09043 | 10842 ft | 347 kts | 304° |
| 2026-04-21 06:57 | 38.14888 | -121.11383 | 10510 ft | 345 kts | 305° |
| 2026-04-21 06:58 | 38.16443 | -121.13693 | 10190 ft | 343 kts | 305° |
| 2026-04-21 06:58 | 38.18002 | -121.15999 | 9901 ft | 343 kts | 305° |
| 2026-04-21 06:58 | 38.19537 | -121.18257 | 9919 ft | 333 kts | 305° |
| 2026-04-21 06:58 | 38.21037 | -121.20458 | 9913 ft | 325 kts | 305° |
| 2026-04-21 06:59 | 38.22533 | -121.22577 | 9849 ft | 320 kts | 308° |
| 2026-04-21 06:59 | 38.23562 | -121.23906 | 9818 ft | 316 kts | 309° |
| 2026-04-21 06:59 | 38.25119 | -121.25850 | 9800 ft | 308 kts | 309° |
| 2026-04-21 06:59 | 38.26625 | -121.27713 | 9657 ft | 297 kts | 309° |
| 2026-04-21 07:00 | 38.28084 | -121.29530 | 9247 ft | 293 kts | 309° |
| 2026-04-21 07:00 | 38.29996 | -121.31934 | 8655 ft | 290 kts | 309° |
| 2026-04-21 07:00 | 38.30962 | -121.33153 | 8411 ft | 288 kts | 309° |
| 2026-04-21 07:00 | 38.32371 | -121.34933 | 8216 ft | 281 kts | 309° |
| 2026-04-21 07:01 | 38.33750 | -121.36678 | 8093 ft | 278 kts | 309° |
| 2026-04-21 07:01 | 38.35112 | -121.38410 | 7999 ft | 283 kts | 309° |
| 2026-04-21 07:01 | 38.37928 | -121.41993 | 7761 ft | 286 kts | 309° |
| 2026-04-21 07:02 | 38.39339 | -121.43787 | 7653 ft | 286 kts | 309° |
| 2026-04-21 07:02 | 38.40749 | -121.45580 | 7539 ft | 286 kts | 309° |
| 2026-04-21 07:02 | 38.42154 | -121.47369 | 7430 ft | 285 kts | 309° |
| 2026-04-21 07:02 | 38.43552 | -121.49149 | 7321 ft | 284 kts | 309° |
| 2026-04-21 07:03 | 38.44946 | -121.50925 | 7211 ft | 282 kts | 309° |
| 2026-04-21 07:03 | 38.46332 | -121.52695 | 7113 ft | 282 kts | 311° |
| 2026-04-21 07:03 | 38.47727 | -121.54449 | 6984 ft | 282 kts | 314° |
| 2026-04-21 07:03 | 38.49255 | -121.56056 | 6760 ft | 285 kts | 319° |
| 2026-04-21 07:04 | 38.50826 | -121.57592 | 6539 ft | 284 kts | 320° |
| 2026-04-21 07:04 | 38.52389 | -121.59123 | 6318 ft | 282 kts | 319° |
| 2026-04-21 07:04 | 38.53925 | -121.60649 | 6090 ft | 278 kts | 319° |
| 2026-04-21 07:04 | 38.55437 | -121.62163 | 5877 ft | 274 kts | 319° |
| 2026-04-21 07:05 | 38.56922 | -121.63657 | 5657 ft | 271 kts | 319° |
| 2026-04-21 07:05 | 38.58446 | -121.65067 | 5443 ft | 271 kts | 331° |
| 2026-04-21 07:05 | 38.60208 | -121.65840 | 5257 ft | 269 kts | 343° |
| 2026-04-21 07:05 | 38.62008 | -121.66478 | 5046 ft | 268 kts | 342° |
| 2026-04-21 07:06 | 38.63796 | -121.67130 | 4838 ft | 264 kts | 342° |
| 2026-04-21 07:06 | 38.65533 | -121.67781 | 4565 ft | 257 kts | 341° |
| 2026-04-21 07:06 | 38.67230 | -121.68427 | 4314 ft | 251 kts | 340° |
| 2026-04-21 07:06 | 38.68885 | -121.69061 | 4059 ft | 244 kts | 340° |
| 2026-04-21 07:07 | 38.70486 | -121.69675 | 3791 ft | 236 kts | 339° |
| 2026-04-21 07:07 | 38.72047 | -121.70189 | 3502 ft | 229 kts | 348° |
| 2026-04-21 07:07 | 38.73617 | -121.70344 | 3220 ft | 224 kts | 354° |
| 2026-04-21 07:07 | 38.75145 | -121.70381 | 3029 ft | 213 kts | 356° |
| 2026-04-21 07:08 | 38.76552 | -121.70397 | 2981 ft | 196 kts | 355° |
| 2026-04-21 07:08 | 38.77892 | -121.70392 | 2986 ft | 189 kts | 356° |
| 2026-04-21 07:08 | 38.79202 | -121.70385 | 2986 ft | 188 kts | 356° |
| 2026-04-21 07:08 | 38.80523 | -121.70378 | 3005 ft | 191 kts | 356° |
| 2026-04-21 07:09 | 38.81856 | -121.70373 | 3004 ft | 192 kts | 356° |
| 2026-04-21 07:09 | 38.83179 | -121.70368 | 2940 ft | 190 kts | 356° |
| 2026-04-21 07:09 | 38.84496 | -121.70369 | 2633 ft | 188 kts | 356° |
| 2026-04-21 07:09 | 38.85788 | -121.70392 | 2325 ft | 183 kts | 356° |
| 2026-04-21 07:10 | 38.87037 | -121.70442 | 2135 ft | 178 kts | 356° |
| 2026-04-21 07:10 | 38.88266 | -121.70501 | 2026 ft | 176 kts | 356° |
| 2026-04-21 07:10 | 38.89486 | -121.70570 | 2002 ft | 175 kts | 356° |
| 2026-04-21 07:10 | 38.90705 | -121.70640 | 2008 ft | 180 kts | 356° |
| 2026-04-21 07:11 | 38.91975 | -121.70696 | 1995 ft | 180 kts | 2° |
| 2026-04-21 07:11 | 38.93099 | -121.70118 | 1981 ft | 179 kts | 45° |
| 2026-04-21 07:11 | 38.93630 | -121.68724 | 2006 ft | 176 kts | 88° |
| 2026-04-21 07:11 | 38.93387 | -121.67217 | 1992 ft | 173 kts | 124° |
| 2026-04-21 07:12 | 38.92486 | -121.66253 | 2013 ft | 169 kts | 155° |
| 2026-04-21 07:12 | 38.91406 | -121.65620 | 1988 ft | 172 kts | 158° |
| 2026-04-21 07:12 | 38.90331 | -121.64958 | 1985 ft | 171 kts | 153° |
| 2026-04-21 07:12 | 38.89286 | -121.64232 | 1993 ft | 170 kts | 153° |
| 2026-04-21 07:13 | 38.88264 | -121.63507 | 1989 ft | 170 kts | 153° |
| 2026-04-21 07:13 | 38.87232 | -121.62774 | 1997 ft | 170 kts | 152° |
| 2026-04-21 07:13 | 38.86193 | -121.62037 | 1977 ft | 173 kts | 153° |
| 2026-04-21 07:13 | 38.85135 | -121.61259 | 2008 ft | 178 kts | 153° |
| 2026-04-21 07:14 | 38.84060 | -121.60476 | 1996 ft | 177 kts | 153° |
| 2026-04-21 07:14 | 38.82930 | -121.59926 | 1977 ft | 171 kts | 180° |
| 2026-04-21 07:14 | 38.81751 | -121.59961 | 2009 ft | 172 kts | 182° |
| 2026-04-21 07:14 | 38.80556 | -121.59954 | 1972 ft | 173 kts | 182° |
| 2026-04-21 07:15 | 38.79355 | -121.59965 | 1771 ft | 174 kts | 182° |
| 2026-04-21 07:15 | 38.78161 | -121.59983 | 1553 ft | 169 kts | 182° |
| 2026-04-21 07:15 | 38.76989 | -121.60004 | 1312 ft | 167 kts | 181° |
| 2026-04-21 07:15 | 38.75835 | -121.60024 | 1083 ft | 164 kts | 181° |
| 2026-04-21 07:16 | 38.74701 | -121.60043 | 847 ft | 160 kts | 180° |
| 2026-04-21 07:16 | 38.73643 | -121.60066 | 629 ft | 149 kts | 180° |
| 2026-04-21 07:16 | 38.72635 | -121.60081 | 403 ft | 139 kts | 179° |
| 2026-04-21 07:16 | 38.71685 | -121.60085 | 216 ft | 137 kts | 181° |
| 2026-04-21 07:17 | 38.70750 | -121.60110 | 49 ft | 130 kts | 179° |
| 2026-04-21 07:17 | 38.69941 | -121.60125 | 25 ft | 91 kts | 181° |
| 2026-04-21 07:17 | 38.69475 | -121.60080 | 21 ft | 50 kts | 157° |
| 2026-04-21 07:17 | 38.69230 | -121.59891 | 23 ft | 28 kts | 122° |
| 2026-04-21 07:18 | 38.69224 | -121.59655 | 22 ft | 26 kts | 73° |
| 2026-04-21 07:18 | 38.69335 | -121.59481 | 24 ft | 24 kts | 46° |
| 2026-04-21 07:18 | 38.69448 | -121.59396 | 22 ft | 11 kts | 31° |
| 2026-04-21 07:18 | 38.69482 | -121.59357 | 23 ft | 6 kts | 7° |
| 2026-04-21 07:19 | 38.69510 | -121.59349 | 22 ft | 0 kts | 17° |